RYR5J EDLW-EHAM
Flight info
| Callsign | RYR5J |
|---|---|
| Flight time | 0h 35m |
| Altitude | 20000 |
| Route | HMM7Q HMM T281 NORKU |
| Aircraft | B38M/M-SDE1FGHILORVWXY/HB1 |
Departure
| Time | 2026-05-05 19:48 |
|---|---|
| Airport | Dortmund Airport (EDLW) |
Arrival
| Time | 2026-05-05 20:23 |
|---|---|
| Airport | Amsterdam Airport Schiphol (EHAM) |
| Time | Latitude | Longitude | Altitude | Speed | Heading |
|---|---|---|---|---|---|
| 2026-05-05 19:20 | 51.51622 | 7.61418 | 421 ft | 0 kts | 152° |
| 2026-05-05 19:37 | 51.51623 | 7.61418 | 421 ft | 2 kts | 152° |
| 2026-05-05 19:37 | 51.51636 | 7.61406 | 420 ft | 2 kts | 153° |
| 2026-05-05 19:37 | 51.51650 | 7.61395 | 417 ft | 2 kts | 154° |
| 2026-05-05 19:38 | 51.51663 | 7.61385 | 416 ft | 2 kts | 156° |
| 2026-05-05 19:38 | 51.51678 | 7.61376 | 419 ft | 2 kts | 166° |
| 2026-05-05 19:38 | 51.51693 | 7.61376 | 417 ft | 2 kts | 217° |
| 2026-05-05 19:38 | 51.51699 | 7.61386 | 423 ft | 0 kts | 238° |
| 2026-05-05 19:39 | 51.51700 | 7.61387 | 423 ft | 0 kts | 239° |
| 2026-05-05 19:43 | 51.51699 | 7.61383 | 419 ft | 1 kts | 239° |
| 2026-05-05 19:44 | 51.51691 | 7.61362 | 416 ft | 3 kts | 239° |
| 2026-05-05 19:44 | 51.51676 | 7.61321 | 424 ft | 5 kts | 240° |
| 2026-05-05 19:44 | 51.51653 | 7.61257 | 421 ft | 8 kts | 240° |
| 2026-05-05 19:44 | 51.51621 | 7.61164 | 422 ft | 12 kts | 241° |
| 2026-05-05 19:45 | 51.51580 | 7.61024 | 417 ft | 16 kts | 248° |
| 2026-05-05 19:45 | 51.51525 | 7.60861 | 421 ft | 19 kts | 239° |
| 2026-05-05 19:45 | 51.51457 | 7.60670 | 417 ft | 19 kts | 240° |
| 2026-05-05 19:45 | 51.51394 | 7.60490 | 420 ft | 18 kts | 240° |
| 2026-05-05 19:46 | 51.51364 | 7.60337 | 427 ft | 9 kts | 285° |
| 2026-05-05 19:46 | 51.51383 | 7.60290 | 420 ft | 4 kts | 321° |
| 2026-05-05 19:46 | 51.51447 | 7.60234 | 422 ft | 13 kts | 336° |
| 2026-05-05 19:46 | 51.51493 | 7.60269 | 422 ft | 7 kts | 58° |
| 2026-05-05 19:47 | 51.51524 | 7.60356 | 414 ft | 12 kts | 59° |
| 2026-05-05 19:47 | 51.51654 | 7.60717 | 418 ft | 67 kts | 60° |
| 2026-05-05 19:47 | 51.51982 | 7.61640 | 414 ft | 121 kts | 60° |
| 2026-05-05 19:47 | 51.52442 | 7.62988 | 520 ft | 152 kts | 63° |
| 2026-05-05 19:48 | 51.52922 | 7.64552 | 919 ft | 164 kts | 63° |
| 2026-05-05 19:48 | 51.53442 | 7.66211 | 1371 ft | 171 kts | 60° |
| 2026-05-05 19:48 | 51.54084 | 7.67931 | 1691 ft | 187 kts | 59° |
| 2026-05-05 19:48 | 51.54770 | 7.69804 | 2031 ft | 202 kts | 59° |
| 2026-05-05 19:49 | 51.55497 | 7.71822 | 2268 ft | 215 kts | 59° |
| 2026-05-05 19:49 | 51.56265 | 7.73961 | 2425 ft | 231 kts | 59° |
| 2026-05-05 19:49 | 51.57095 | 7.76269 | 2871 ft | 245 kts | 60° |
| 2026-05-05 19:49 | 51.57985 | 7.78607 | 3483 ft | 250 kts | 50° |
| 2026-05-05 19:50 | 51.59408 | 7.80222 | 4025 ft | 259 kts | 14° |
| 2026-05-05 19:50 | 51.61202 | 7.80187 | 4615 ft | 264 kts | 344° |
| 2026-05-05 19:50 | 51.62959 | 7.79226 | 5261 ft | 268 kts | 340° |
| 2026-05-05 19:50 | 51.64750 | 7.78324 | 5923 ft | 272 kts | 345° |
| 2026-05-05 19:51 | 51.66612 | 7.77662 | 6597 ft | 275 kts | 348° |
| 2026-05-05 19:51 | 51.68503 | 7.77057 | 7255 ft | 278 kts | 348° |
| 2026-05-05 19:51 | 51.70408 | 7.76381 | 7913 ft | 281 kts | 347° |
| 2026-05-05 19:51 | 51.72325 | 7.75668 | 8547 ft | 284 kts | 347° |
| 2026-05-05 19:52 | 51.74260 | 7.74962 | 9183 ft | 287 kts | 347° |
| 2026-05-05 19:52 | 51.76196 | 7.74268 | 9804 ft | 289 kts | 347° |
| 2026-05-05 19:52 | 51.78172 | 7.73556 | 10377 ft | 294 kts | 347° |
| 2026-05-05 19:52 | 51.80200 | 7.72821 | 10752 ft | 305 kts | 347° |
| 2026-05-05 19:53 | 51.82325 | 7.72049 | 11024 ft | 320 kts | 347° |
| 2026-05-05 19:53 | 51.84523 | 7.71157 | 11382 ft | 330 kts | 338° |
| 2026-05-05 19:53 | 51.86466 | 7.69153 | 11860 ft | 336 kts | 314° |
| 2026-05-05 19:53 | 51.88011 | 7.66292 | 12375 ft | 340 kts | 309° |
| 2026-05-05 19:54 | 51.89475 | 7.63254 | 12907 ft | 344 kts | 307° |
| 2026-05-05 19:54 | 51.90952 | 7.60174 | 13434 ft | 348 kts | 308° |
| 2026-05-05 19:54 | 51.92457 | 7.57153 | 13959 ft | 351 kts | 309° |
| 2026-05-05 19:54 | 51.94008 | 7.54060 | 14485 ft | 354 kts | 309° |
| 2026-05-05 19:55 | 51.95549 | 7.50941 | 15001 ft | 357 kts | 308° |
| 2026-05-05 19:55 | 51.97100 | 7.47776 | 15511 ft | 360 kts | 308° |
| 2026-05-05 19:55 | 51.98670 | 7.44584 | 16011 ft | 362 kts | 308° |
| 2026-05-05 19:55 | 52.00257 | 7.41368 | 16501 ft | 365 kts | 308° |
| 2026-05-05 19:56 | 52.01848 | 7.38131 | 16979 ft | 368 kts | 308° |
| 2026-05-05 19:56 | 52.03446 | 7.34871 | 17457 ft | 370 kts | 308° |
| 2026-05-05 19:56 | 52.05057 | 7.31581 | 17914 ft | 373 kts | 308° |
| 2026-05-05 19:56 | 52.06657 | 7.28315 | 18365 ft | 375 kts | 308° |
| 2026-05-05 19:57 | 52.08289 | 7.24976 | 18810 ft | 378 kts | 308° |
| 2026-05-05 19:57 | 52.09929 | 7.21616 | 19255 ft | 380 kts | 308° |
| 2026-05-05 19:57 | 52.11580 | 7.18229 | 19679 ft | 383 kts | 308° |
| 2026-05-05 19:57 | 52.13241 | 7.14818 | 19985 ft | 384 kts | 308° |
| 2026-05-05 19:58 | 52.14898 | 7.11410 | 19996 ft | 382 kts | 308° |
| 2026-05-05 19:58 | 52.16526 | 7.08056 | 19992 ft | 381 kts | 308° |
| 2026-05-05 19:58 | 52.18166 | 7.04662 | 19990 ft | 381 kts | 308° |
| 2026-05-05 19:58 | 52.19806 | 7.01267 | 19991 ft | 381 kts | 308° |
| 2026-05-05 19:59 | 52.21443 | 6.97884 | 19992 ft | 380 kts | 309° |
| 2026-05-05 19:59 | 52.23162 | 6.94594 | 19993 ft | 380 kts | 309° |
| 2026-05-05 19:59 | 52.24809 | 6.91209 | 19994 ft | 380 kts | 308° |
| 2026-05-05 19:59 | 52.26446 | 6.87819 | 19993 ft | 380 kts | 309° |
| 2026-05-05 20:00 | 52.28126 | 6.84484 | 19994 ft | 380 kts | 309° |
| 2026-05-05 20:00 | 52.29815 | 6.81160 | 19992 ft | 380 kts | 309° |
| 2026-05-05 20:00 | 52.31486 | 6.77805 | 19994 ft | 380 kts | 309° |
| 2026-05-05 20:00 | 52.33153 | 6.74428 | 19994 ft | 380 kts | 309° |
| 2026-05-05 20:01 | 52.34797 | 6.71115 | 19994 ft | 380 kts | 309° |
| 2026-05-05 20:01 | 52.36469 | 6.67761 | 19994 ft | 380 kts | 309° |
| 2026-05-05 20:01 | 52.38143 | 6.64390 | 19994 ft | 380 kts | 309° |
| 2026-05-05 20:01 | 52.39809 | 6.61019 | 19994 ft | 380 kts | 309° |
| 2026-05-05 20:02 | 52.41473 | 6.57652 | 19992 ft | 380 kts | 309° |
| 2026-05-05 20:02 | 52.43137 | 6.54283 | 19994 ft | 380 kts | 309° |
| 2026-05-05 20:02 | 52.44804 | 6.50906 | 19993 ft | 380 kts | 309° |
| 2026-05-05 20:02 | 52.46291 | 6.47346 | 20000 ft | 380 kts | 294° |
| 2026-05-05 20:03 | 52.47036 | 6.43197 | 20020 ft | 380 kts | 277° |
| 2026-05-05 20:03 | 52.47298 | 6.38932 | 20010 ft | 380 kts | 274° |
| 2026-05-05 20:03 | 52.47487 | 6.34557 | 20007 ft | 380 kts | 274° |
| 2026-05-05 20:03 | 52.47675 | 6.30280 | 20006 ft | 380 kts | 275° |
| 2026-05-05 20:04 | 52.47899 | 6.25964 | 19966 ft | 380 kts | 275° |
| 2026-05-05 20:04 | 52.48125 | 6.21650 | 19576 ft | 380 kts | 275° |
| 2026-05-05 20:04 | 52.48335 | 6.17331 | 18882 ft | 382 kts | 274° |
| 2026-05-05 20:04 | 52.48542 | 6.12917 | 17902 ft | 393 kts | 274° |
| 2026-05-05 20:05 | 52.48758 | 6.08403 | 16925 ft | 400 kts | 274° |
| 2026-05-05 20:05 | 52.48974 | 6.03966 | 15885 ft | 376 kts | 274° |
| 2026-05-05 20:05 | 52.49173 | 5.99806 | 14703 ft | 357 kts | 274° |
| 2026-05-05 20:05 | 52.49362 | 5.95731 | 14389 ft | 349 kts | 274° |
| 2026-05-05 20:06 | 52.49543 | 5.91839 | 14009 ft | 340 kts | 274° |
| 2026-05-05 20:06 | 52.49723 | 5.87978 | 13566 ft | 338 kts | 274° |
| 2026-05-05 20:06 | 52.49902 | 5.84131 | 13123 ft | 337 kts | 274° |
| 2026-05-05 20:06 | 52.50077 | 5.80299 | 12684 ft | 336 kts | 274° |
| 2026-05-05 20:07 | 52.50251 | 5.76480 | 12233 ft | 335 kts | 274° |
| 2026-05-05 20:07 | 52.50420 | 5.72732 | 11791 ft | 324 kts | 274° |
| 2026-05-05 20:07 | 52.50581 | 5.69150 | 11374 ft | 314 kts | 274° |
| 2026-05-05 20:07 | 52.50738 | 5.65639 | 10958 ft | 302 kts | 274° |
| 2026-05-05 20:08 | 52.50887 | 5.62270 | 10565 ft | 290 kts | 274° |
| 2026-05-05 20:08 | 52.51029 | 5.58991 | 10197 ft | 287 kts | 272° |
| 2026-05-05 20:08 | 52.50778 | 5.55771 | 9882 ft | 286 kts | 249° |
| 2026-05-05 20:08 | 52.49994 | 5.52769 | 9660 ft | 286 kts | 245° |
| 2026-05-05 20:09 | 52.49137 | 5.49828 | 9419 ft | 285 kts | 244° |
| 2026-05-05 20:09 | 52.48285 | 5.46893 | 9176 ft | 284 kts | 245° |
| 2026-05-05 20:09 | 52.47705 | 5.43835 | 9179 ft | 282 kts | 261° |
| 2026-05-05 20:09 | 52.47434 | 5.40674 | 9189 ft | 283 kts | 261° |
| 2026-05-05 20:10 | 52.47028 | 5.37521 | 9197 ft | 283 kts | 253° |
| 2026-05-05 20:10 | 52.46360 | 5.34482 | 9205 ft | 283 kts | 248° |
| 2026-05-05 20:10 | 52.45627 | 5.31486 | 9210 ft | 283 kts | 249° |
| 2026-05-05 20:10 | 52.44958 | 5.28455 | 9212 ft | 283 kts | 251° |
| 2026-05-05 20:11 | 52.44317 | 5.25398 | 9213 ft | 283 kts | 251° |
| 2026-05-05 20:11 | 52.43662 | 5.22352 | 9213 ft | 283 kts | 250° |
| 2026-05-05 20:11 | 52.42994 | 5.19317 | 9214 ft | 283 kts | 250° |
| 2026-05-05 20:11 | 52.42326 | 5.16277 | 9212 ft | 283 kts | 250° |
| 2026-05-05 20:12 | 52.41664 | 5.13244 | 9211 ft | 283 kts | 250° |
| 2026-05-05 20:12 | 52.41002 | 5.10215 | 9210 ft | 283 kts | 250° |
| 2026-05-05 20:12 | 52.40344 | 5.07218 | 9216 ft | 283 kts | 250° |
| 2026-05-05 20:12 | 52.39677 | 5.04181 | 9214 ft | 283 kts | 250° |
| 2026-05-05 20:13 | 52.39008 | 5.01144 | 9213 ft | 283 kts | 250° |
| 2026-05-05 20:13 | 52.38342 | 4.98117 | 9214 ft | 283 kts | 250° |
| 2026-05-05 20:13 | 52.37672 | 4.95082 | 9215 ft | 283 kts | 250° |
| 2026-05-05 20:13 | 52.36999 | 4.92040 | 9212 ft | 283 kts | 250° |
| 2026-05-05 20:14 | 52.36337 | 4.89045 | 9212 ft | 283 kts | 250° |
| 2026-05-05 20:14 | 52.35665 | 4.86013 | 9211 ft | 283 kts | 250° |
| 2026-05-05 20:14 | 52.34992 | 4.82982 | 9216 ft | 283 kts | 250° |
| 2026-05-05 20:14 | 52.34320 | 4.79957 | 9214 ft | 283 kts | 250° |
| 2026-05-05 20:15 | 52.33649 | 4.76929 | 9119 ft | 285 kts | 252° |
| 2026-05-05 20:15 | 52.33405 | 4.73749 | 8801 ft | 284 kts | 278° |
| 2026-05-05 20:15 | 52.33782 | 4.70568 | 8421 ft | 286 kts | 283° |
| 2026-05-05 20:15 | 52.34261 | 4.67447 | 8033 ft | 287 kts | 284° |
| 2026-05-05 20:16 | 52.34534 | 4.64219 | 7655 ft | 287 kts | 262° |
| 2026-05-05 20:16 | 52.33870 | 4.61283 | 7283 ft | 267 kts | 239° |
| 2026-05-05 20:16 | 52.32874 | 4.58700 | 6924 ft | 270 kts | 236° |
| 2026-05-05 20:16 | 52.31831 | 4.56131 | 6558 ft | 272 kts | 237° |
| 2026-05-05 20:17 | 52.30810 | 4.53515 | 6195 ft | 274 kts | 238° |
| 2026-05-05 20:17 | 52.29796 | 4.50857 | 5829 ft | 276 kts | 238° |
| 2026-05-05 20:17 | 52.28789 | 4.48241 | 5449 ft | 266 kts | 238° |
| 2026-05-05 20:17 | 52.27792 | 4.45678 | 5091 ft | 269 kts | 237° |
| 2026-05-05 20:18 | 52.26483 | 4.43533 | 4705 ft | 272 kts | 206° |
| 2026-05-05 20:18 | 52.24702 | 4.42974 | 4348 ft | 255 kts | 169° |
| 2026-05-05 20:18 | 52.23194 | 4.44148 | 4107 ft | 227 kts | 139° |
| 2026-05-05 20:18 | 52.22125 | 4.45886 | 3796 ft | 210 kts | 130° |
| 2026-05-05 20:19 | 52.21389 | 4.47879 | 3528 ft | 200 kts | 109° |
| 2026-05-05 20:19 | 52.21020 | 4.49957 | 3259 ft | 187 kts | 105° |
| 2026-05-05 20:19 | 52.20762 | 4.52019 | 3096 ft | 190 kts | 88° |
| 2026-05-05 20:19 | 52.21190 | 4.53998 | 2797 ft | 187 kts | 58° |
| 2026-05-05 20:20 | 52.21891 | 4.55805 | 2549 ft | 189 kts | 56° |
| 2026-05-05 20:20 | 52.22609 | 4.57605 | 2300 ft | 189 kts | 57° |
| 2026-05-05 20:20 | 52.23306 | 4.59390 | 2041 ft | 183 kts | 57° |
| 2026-05-05 20:20 | 52.23987 | 4.61138 | 1803 ft | 184 kts | 57° |
| 2026-05-05 20:21 | 52.24653 | 4.62851 | 1538 ft | 168 kts | 57° |
| 2026-05-05 20:21 | 52.25248 | 4.64382 | 1227 ft | 155 kts | 57° |
| 2026-05-05 20:21 | 52.25820 | 4.65850 | 876 ft | 152 kts | 57° |
| 2026-05-05 20:21 | 52.26373 | 4.67268 | 759 ft | 145 kts | 55° |
| 2026-05-05 20:22 | 52.26937 | 4.68695 | 745 ft | 154 kts | 58° |
| 2026-05-05 20:22 | 52.27493 | 4.70158 | 521 ft | 148 kts | 57° |
| 2026-05-05 20:22 | 52.28064 | 4.71563 | 348 ft | 148 kts | 57° |
| 2026-05-05 20:22 | 52.28612 | 4.72952 | 166 ft | 147 kts | 57° |
| 2026-05-05 20:23 | 52.29123 | 4.74282 | 2 ft | 123 kts | 58° |
| 2026-05-05 20:23 | 52.29471 | 4.75182 | -4 ft | 64 kts | 58° |
| 2026-05-05 20:23 | 52.29650 | 4.75641 | -1 ft | 32 kts | 49° |
| 2026-05-05 20:23 | 52.29759 | 4.75783 | -3 ft | 13 kts | 31° |
| 2026-05-05 20:24 | 52.29811 | 4.75827 | -3 ft | 8 kts | 27° |
| 2026-05-05 20:24 | 52.29847 | 4.75858 | -3 ft | 10 kts | 28° |
| 2026-05-05 20:24 | 52.29912 | 4.75914 | -2 ft | 11 kts | 28° |
| 2026-05-05 20:24 | 52.29985 | 4.75985 | -2 ft | 11 kts | 43° |
| 2026-05-05 20:25 | 52.30027 | 4.76081 | -2 ft | 11 kts | 57° |
| 2026-05-05 20:25 | 52.30073 | 4.76197 | -2 ft | 13 kts | 57° |
| 2026-05-05 20:25 | 52.30131 | 4.76280 | -2 ft | 9 kts | 6° |
| 2026-05-05 20:25 | 52.30167 | 4.76271 | -2 ft | 3 kts | 355° |
| 2026-05-05 20:26 | 52.30199 | 4.76263 | -2 ft | 5 kts | 345° |
| 2026-05-05 20:26 | 52.30231 | 4.76236 | -2 ft | 8 kts | 331° |
| 2026-05-05 20:26 | 52.30289 | 4.76175 | -2 ft | 12 kts | 322° |
| 2026-05-05 20:26 | 52.30324 | 4.76170 | -2 ft | 3 kts | 30° |
| 2026-05-05 20:27 | 52.30338 | 4.76193 | -2 ft | 1 kts | 57° |